LFBE/EGC METAR and TAF weather

Enter ICAO airport designator
Station Type Date Time Source
LFBE METAR 2021/03/03 02:30 UTC NOAA

LFBE 030230Z AUTO 07004KT CAVOK 03/02 Q1029


Station Type Date Time Source
LFBE Decoded METAR 2021/03/03 02:30 UTC NOAA

Bergerac, France (LFBE) 44-49N 000-31E 52M
Mar 02, 2021 - 09:30 PM EST / 2021.03.03 0230 UTC
Wind: from the ENE (070 degrees) at 5 MPH (4 KT):0
Visibility: greater than 7 mile(s):0
Temperature: 37 F (3 C)
Dew Point: 35 F (2 C)
Relative Humidity: 93%
Pressure (altimeter): 30.39 in. Hg (1029 hPa)
ob: LFBE 030230Z AUTO 07004KT CAVOK 03/02 Q1029
cycle: 2

Station Type Date Time Source
LFBE TAF 2021/03/02 21:21 UTC NOAA

TAF LFBE 022117Z 0221/0318 CNL

Example: see airport list